createdAt,value
2024-03-07T00:00:01.897Z,47.40
2024-03-07T00:02:28.930Z,46.10
2024-03-07T00:04:55.844Z,44.80
2024-03-07T00:07:22.959Z,48.83
2024-03-07T00:09:49.822Z,43.80
2024-03-07T00:12:16.800Z,45.87
2024-03-07T00:14:43.823Z,42.43
2024-03-07T00:17:10.782Z,40.33
2024-03-07T00:19:37.699Z,40.87
2024-03-07T00:22:04.730Z,38.77
2024-03-07T00:24:31.652Z,41.70
2024-03-07T00:26:58.583Z,38.37
2024-03-07T00:29:25.606Z,38.30
2024-03-07T00:31:52.569Z,36.07
2024-03-07T00:34:24.879Z,43.33
2024-03-07T00:36:53.189Z,42.50
2024-03-07T00:39:20.254Z,40.47
2024-03-07T00:41:47.204Z,37.43
2024-03-07T00:44:14.277Z,41.73
2024-03-07T00:46:41.212Z,38.00
2024-03-07T00:49:08.169Z,39.37
2024-03-07T00:51:35.324Z,38.90
2024-03-07T00:54:02.287Z,39.73
2024-03-07T00:56:29.262Z,40.20
2024-03-07T00:58:56.293Z,39.00
2024-03-07T01:01:23.188Z,34.77
2024-03-07T01:03:50.183Z,41.33
2024-03-07T01:06:17.052Z,41.43
2024-03-07T01:08:43.969Z,36.67
2024-03-07T01:11:11.069Z,39.50
2024-03-07T01:13:42.144Z,42.00
2024-03-07T01:16:09.468Z,42.63
2024-03-07T01:18:36.559Z,37.13
2024-03-07T01:21:04.714Z,37.73
2024-03-07T01:23:33.075Z,40.37
2024-03-07T01:26:00.466Z,38.40
2024-03-07T01:28:28.171Z,35.67
2024-03-07T01:30:55.091Z,37.47
2024-03-07T01:33:22.055Z,40.33
2024-03-07T01:35:49.613Z,42.50
2024-03-07T01:38:17.555Z,41.60
2024-03-07T01:40:45.894Z,42.00
2024-03-07T01:43:12.795Z,40.87
2024-03-07T01:45:40.149Z,43.83
2024-03-07T01:48:10.573Z,37.90
2024-03-07T01:50:37.684Z,39.47
2024-03-07T01:53:04.893Z,39.70
2024-03-07T01:55:31.826Z,40.40
2024-03-07T01:58:01.041Z,40.20
2024-03-07T02:00:27.967Z,40.27
2024-03-07T02:02:55.262Z,41.03
2024-03-07T02:05:22.968Z,43.80
2024-03-07T02:07:49.911Z,43.20
2024-03-07T02:10:16.952Z,44.77
2024-03-07T02:12:43.850Z,38.03
2024-03-07T02:15:10.812Z,40.27
2024-03-07T02:17:38.720Z,43.03
2024-03-07T02:20:06.689Z,40.97
2024-03-07T02:22:33.597Z,43.43
2024-03-07T02:25:00.586Z,48.03
2024-03-07T02:27:27.463Z,39.70
2024-03-07T02:29:54.486Z,48.73
2024-03-07T02:32:21.409Z,44.03
2024-03-07T02:34:48.552Z,42.03
2024-03-07T02:39:52.369Z,42.10
2024-03-07T02:42:19.323Z,43.30
2024-03-07T02:44:46.462Z,43.43
2024-03-07T02:47:13.553Z,50.07
2024-03-07T02:49:40.386Z,49.93
2024-03-07T02:52:07.240Z,45.77
2024-03-07T02:54:34.846Z,45.33
2024-03-07T02:57:02.663Z,45.97
2024-03-07T02:59:29.699Z,47.63
2024-03-07T03:01:56.587Z,48.30
2024-03-07T03:04:23.527Z,52.07
2024-03-07T03:06:50.574Z,50.80
2024-03-07T03:09:17.550Z,47.07
2024-03-07T03:11:47.719Z,43.83
2024-03-07T03:14:14.791Z,43.23
2024-03-07T03:16:48.532Z,46.00
2024-03-07T03:19:16.651Z,52.80
2024-03-07T03:21:43.769Z,44.20
2024-03-07T03:24:10.772Z,45.60
2024-03-07T03:26:37.813Z,48.97
2024-03-07T03:29:04.759Z,46.40
2024-03-07T03:31:31.710Z,43.80
2024-03-07T03:33:58.706Z,46.30
2024-03-07T03:36:25.581Z,49.27
2024-03-07T03:38:52.616Z,46.57
2024-03-07T03:41:19.622Z,45.53
2024-03-07T03:43:47.490Z,46.70
2024-03-07T03:46:14.589Z,43.87
2024-03-07T03:48:42.116Z,44.70
2024-03-07T03:51:09.685Z,48.43
2024-03-07T03:53:37.858Z,47.37
2024-03-07T03:56:05.861Z,49.00
2024-03-07T03:58:32.982Z,47.37
2024-03-07T04:00:59.864Z,41.93
2024-03-07T04:03:26.936Z,47.70
2024-03-07T04:05:54.069Z,49.67
2024-03-07T04:08:21.131Z,45.80
2024-03-07T04:10:47.980Z,41.47
2024-03-07T04:13:14.950Z,47.10
2024-03-07T04:15:44.665Z,45.50
2024-03-07T04:18:12.466Z,40.37
2024-03-07T04:20:40.128Z,47.73
2024-03-07T04:23:09.537Z,41.23
2024-03-07T04:25:37.855Z,49.70
2024-03-07T04:28:05.202Z,50.23
2024-03-07T04:30:32.077Z,44.20
2024-03-07T04:32:59.005Z,44.50
2024-03-07T04:35:25.973Z,46.60
2024-03-07T04:37:52.971Z,50.30
2024-03-07T04:40:20.246Z,50.70
2024-03-07T04:42:49.980Z,48.10
2024-03-07T04:45:18.032Z,48.90
2024-03-07T04:47:46.440Z,49.17
2024-03-07T04:50:14.866Z,48.50
2024-03-07T04:52:42.055Z,50.43
2024-03-07T04:55:10.302Z,53.70
2024-03-07T04:57:38.601Z,52.33
2024-03-07T05:00:10.104Z,53.57
2024-03-07T05:02:37.064Z,49.47
2024-03-07T05:05:04.203Z,49.83
2024-03-07T05:07:31.198Z,53.30
2024-03-07T05:09:58.108Z,52.60
2024-03-07T05:12:25.136Z,51.30
2024-03-07T05:14:52.181Z,53.93
2024-03-07T05:17:19.070Z,62.23
2024-03-07T05:19:46.082Z,53.77
2024-03-07T05:22:13.009Z,52.77
2024-03-07T05:24:39.988Z,49.70
2024-03-07T05:27:06.869Z,52.73
2024-03-07T05:29:33.989Z,49.03
2024-03-07T05:32:22.430Z,52.93
2024-03-07T05:34:49.713Z,46.93
2024-03-07T05:37:16.881Z,49.23
2024-03-07T05:39:43.833Z,49.57
2024-03-07T05:42:10.702Z,52.17
2024-03-07T05:44:37.699Z,55.07
2024-03-07T05:47:04.763Z,53.43
2024-03-07T05:49:31.710Z,53.27
2024-03-07T05:51:58.572Z,53.73
2024-03-07T05:54:25.612Z,55.23
2024-03-07T05:56:52.579Z,55.40
2024-03-07T05:59:19.561Z,58.00
2024-03-07T06:01:46.487Z,60.83
2024-03-07T06:04:13.419Z,60.97
2024-03-07T06:06:40.291Z,54.40
2024-03-07T06:09:10.702Z,57.20
2024-03-07T06:11:41.526Z,55.37
2024-03-07T06:14:10.032Z,56.10
2024-03-07T06:16:38.878Z,49.43
2024-03-07T06:19:09.131Z,58.70
2024-03-07T06:21:39.161Z,51.47
2024-03-07T06:24:06.324Z,50.50
2024-03-07T06:26:35.817Z,49.60
2024-03-07T06:29:02.773Z,52.10
2024-03-07T06:31:29.648Z,45.30
2024-03-07T06:33:56.604Z,44.80
2024-03-07T06:36:24.180Z,49.23
2024-03-07T06:38:51.166Z,41.20
2024-03-07T06:41:18.097Z,45.53
2024-03-07T06:43:45.466Z,36.67
2024-03-07T06:46:12.430Z,38.60
2024-03-07T06:48:42.735Z,36.87
2024-03-07T06:51:09.836Z,40.00
2024-03-07T06:53:36.924Z,42.17
2024-03-07T06:56:04.282Z,38.33
2024-03-07T06:58:33.535Z,37.40
2024-03-07T07:01:00.836Z,37.33
2024-03-07T07:03:27.982Z,47.87
2024-03-07T07:05:55.775Z,40.67
2024-03-07T07:08:22.908Z,42.77
2024-03-07T07:10:49.905Z,41.20
2024-03-07T07:13:16.951Z,42.40
2024-03-07T07:15:44.616Z,45.80
2024-03-07T07:18:11.743Z,36.57
2024-03-07T07:20:39.022Z,40.70
2024-03-07T07:23:06.086Z,35.03
2024-03-07T07:25:33.202Z,38.23
2024-03-07T07:28:00.137Z,43.53
2024-03-07T07:30:27.511Z,40.87
2024-03-07T07:32:55.389Z,41.13
2024-03-07T07:35:22.871Z,39.13
2024-03-07T07:37:52.601Z,43.93
2024-03-07T07:40:21.797Z,41.30
2024-03-07T07:42:50.660Z,44.70
2024-03-07T07:45:18.028Z,47.40
2024-03-07T07:47:48.247Z,43.77
2024-03-07T07:50:17.752Z,47.20
2024-03-07T07:52:48.889Z,41.63
2024-03-07T07:55:21.199Z,38.67
2024-03-07T07:58:00.371Z,46.43
2024-03-07T08:00:30.789Z,42.93
2024-03-07T08:03:06.794Z,46.13
2024-03-07T08:05:35.810Z,41.97
2024-03-07T08:08:09.267Z,49.40
2024-03-07T08:10:38.561Z,40.40
2024-03-07T08:13:06.656Z,46.60
2024-03-07T08:15:33.589Z,43.13
2024-03-07T08:18:01.309Z,40.13
2024-03-07T08:20:29.774Z,42.17
2024-03-07T08:22:57.988Z,40.73
2024-03-07T08:25:27.172Z,41.00
2024-03-07T08:27:56.783Z,39.33
2024-03-07T08:30:24.237Z,44.70
2024-03-07T08:32:54.328Z,36.77
2024-03-07T08:35:22.636Z,38.63
2024-03-07T08:37:51.602Z,39.30
2024-03-07T08:40:18.464Z,43.93
2024-03-07T08:42:45.757Z,41.10
2024-03-07T08:45:12.737Z,38.23
2024-03-07T08:47:39.823Z,37.60
2024-03-07T08:50:07.453Z,39.40
2024-03-07T08:52:34.448Z,34.00
2024-03-07T08:55:01.393Z,36.70
2024-03-07T08:57:28.307Z,33.33
2024-03-07T08:59:55.372Z,35.93
2024-03-07T09:02:22.544Z,36.20
2024-03-07T09:04:50.260Z,34.73
2024-03-07T09:07:17.181Z,30.97
2024-03-07T09:09:44.223Z,33.70
2024-03-07T09:12:11.502Z,34.20
2024-03-07T09:14:39.234Z,36.20
2024-03-07T09:17:06.246Z,33.10
2024-03-07T09:19:33.279Z,32.63
2024-03-07T09:22:00.265Z,33.57
2024-03-07T09:24:27.400Z,34.23
2024-03-07T09:26:54.568Z,31.00
2024-03-07T09:29:21.655Z,32.27
2024-03-07T09:31:50.851Z,30.50
2024-03-07T09:34:18.421Z,30.53
2024-03-07T09:36:45.732Z,35.40
2024-03-07T09:39:12.702Z,34.47
2024-03-07T09:41:40.360Z,33.43
2024-03-07T09:44:11.469Z,34.10
2024-03-07T09:46:39.793Z,32.07
2024-03-07T09:49:08.192Z,37.60
2024-03-07T09:51:36.719Z,29.70
2024-03-07T09:54:03.784Z,30.80
2024-03-07T09:56:32.725Z,32.43
2024-03-07T09:59:00.992Z,30.83
2024-03-07T10:01:29.274Z,33.57
2024-03-07T10:04:01.502Z,31.33
2024-03-07T10:06:28.663Z,29.90
2024-03-07T10:08:56.778Z,33.57
2024-03-07T10:11:23.784Z,30.00
2024-03-07T10:13:50.883Z,32.70
2024-03-07T10:16:17.987Z,32.40
2024-03-07T10:18:46.012Z,33.77
2024-03-07T10:21:16.178Z,32.00
2024-03-07T10:23:43.115Z,29.57
2024-03-07T10:26:11.874Z,28.00
2024-03-07T10:28:41.761Z,29.90
2024-03-07T10:31:08.771Z,32.73
2024-03-07T10:33:35.907Z,30.30
2024-03-07T10:36:03.063Z,24.90
2024-03-07T10:38:30.091Z,29.97
2024-03-07T10:40:57.322Z,25.70
2024-03-07T10:43:24.182Z,28.43
2024-03-07T10:45:51.202Z,23.87
2024-03-07T10:48:24.765Z,30.00
2024-03-07T10:51:25.330Z,27.57
2024-03-07T10:54:11.165Z,29.07
2024-03-07T10:57:17.890Z,25.73
2024-03-07T10:59:52.194Z,29.20
2024-03-07T11:02:24.909Z,26.07
2024-03-07T11:04:52.799Z,29.93
2024-03-07T11:07:25.028Z,29.43
2024-03-07T11:09:53.622Z,27.40
2024-03-07T11:12:24.666Z,29.97
2024-03-07T11:14:54.248Z,31.50
2024-03-07T11:17:23.433Z,28.40
2024-03-07T11:19:50.574Z,26.07
2024-03-07T11:22:32.731Z,25.30
2024-03-07T11:25:06.480Z,26.10
2024-03-07T11:27:34.906Z,27.80
2024-03-07T11:30:10.110Z,28.00
2024-03-07T11:32:39.962Z,26.67
2024-03-07T11:35:13.574Z,29.63
2024-03-07T11:37:43.654Z,27.53
2024-03-07T11:40:12.622Z,23.97
2024-03-07T11:42:47.744Z,24.90
2024-03-07T11:45:15.972Z,27.37
2024-03-07T11:47:43.026Z,23.87
2024-03-07T11:50:10.542Z,30.10
2024-03-07T11:52:37.497Z,22.23
2024-03-07T11:55:06.195Z,23.47
2024-03-07T11:57:33.540Z,23.87
2024-03-07T12:00:02.850Z,24.37
2024-03-07T12:02:29.855Z,23.13
2024-03-07T12:04:56.801Z,25.37
2024-03-07T12:07:24.271Z,21.40
2024-03-07T12:09:51.497Z,21.20
2024-03-07T12:12:19.190Z,24.70
2024-03-07T12:14:46.270Z,23.97
2024-03-07T12:17:13.595Z,28.43
2024-03-07T12:19:40.573Z,25.43
2024-03-07T12:22:12.693Z,32.10
2024-03-07T12:24:43.353Z,27.57
2024-03-07T12:27:12.383Z,32.10
2024-03-07T12:29:43.853Z,24.83
2024-03-07T12:32:13.857Z,29.83
2024-03-07T12:34:49.645Z,27.20
2024-03-07T12:37:16.707Z,29.23
2024-03-07T12:39:45.822Z,28.40
2024-03-07T12:42:22.307Z,27.70
2024-03-07T12:44:49.335Z,28.23
2024-03-07T12:47:17.715Z,27.33
2024-03-07T12:49:46.037Z,37.70
2024-03-07T12:52:13.903Z,30.87
2024-03-07T12:54:40.837Z,27.57
2024-03-07T12:57:09.028Z,25.00
2024-03-07T12:59:42.777Z,24.17
2024-03-07T13:02:11.540Z,26.07
2024-03-07T13:04:40.693Z,24.13
2024-03-07T13:07:09.184Z,25.53
2024-03-07T13:09:36.270Z,22.43
2024-03-07T13:12:03.810Z,27.07
2024-03-07T13:14:35.031Z,26.87
2024-03-07T13:17:06.138Z,23.37
2024-03-07T13:19:33.882Z,30.10
2024-03-07T13:22:00.957Z,24.30
2024-03-07T13:24:28.900Z,23.17
2024-03-07T13:26:55.959Z,26.37
2024-03-07T13:29:22.963Z,25.97
2024-03-07T13:31:49.977Z,23.67
2024-03-07T13:34:16.787Z,24.47
2024-03-07T13:36:45.744Z,22.90
2024-03-07T13:39:14.415Z,24.70
2024-03-07T13:41:45.307Z,22.77
2024-03-07T13:44:12.330Z,26.60
2024-03-07T13:46:39.230Z,20.53
2024-03-07T13:49:06.147Z,22.47
2024-03-07T13:51:33.155Z,22.73
2024-03-07T13:54:00.066Z,22.40
2024-03-07T13:57:14.922Z,24.07
2024-03-07T14:00:03.469Z,20.10
2024-03-07T14:03:10.793Z,21.33
2024-03-07T14:06:03.697Z,22.90
2024-03-07T14:08:55.493Z,27.53
2024-03-07T14:11:56.506Z,22.13
2024-03-07T14:15:21.463Z,21.60
2024-03-07T14:18:35.290Z,21.90
2024-03-07T14:21:38.719Z,20.17
2024-03-07T14:24:49.424Z,22.93
2024-03-07T14:27:27.901Z,20.97
2024-03-07T14:30:41.433Z,20.20
2024-03-07T14:33:09.542Z,21.10
2024-03-07T14:36:10.795Z,23.00
2024-03-07T14:38:59.083Z,22.47
2024-03-07T14:41:59.001Z,20.30
2024-03-07T14:44:26.470Z,20.97
2024-03-07T14:47:05.499Z,22.30
2024-03-07T14:49:32.404Z,21.90
2024-03-07T14:52:01.144Z,20.07
2024-03-07T14:54:29.345Z,21.53
2024-03-07T14:56:56.587Z,19.30
2024-03-07T14:59:23.943Z,20.77
2024-03-07T15:01:51.009Z,17.57
2024-03-07T15:04:18.021Z,21.73
2024-03-07T15:06:44.923Z,21.17
2024-03-07T15:09:12.146Z,21.87
2024-03-07T15:11:42.221Z,22.63
2024-03-07T15:14:09.807Z,17.43
2024-03-07T15:16:38.033Z,14.17
2024-03-07T15:19:10.072Z,13.60
2024-03-07T15:21:38.132Z,16.47
2024-03-07T15:24:05.807Z,14.47
2024-03-07T15:26:32.927Z,17.70
2024-03-07T15:28:59.920Z,15.40
2024-03-07T15:31:26.990Z,14.40
2024-03-07T15:33:54.330Z,14.80
2024-03-07T15:36:22.472Z,16.60
2024-03-07T15:38:50.606Z,18.40
2024-03-07T15:41:17.755Z,16.40
2024-03-07T15:43:44.962Z,18.97
2024-03-07T15:46:13.166Z,19.50
2024-03-07T15:48:41.638Z,19.17
2024-03-07T15:51:08.812Z,15.73
2024-03-07T15:53:36.878Z,16.17
2024-03-07T15:56:04.377Z,14.43
2024-03-07T15:58:31.304Z,15.97
2024-03-07T16:00:58.231Z,18.77
2024-03-07T16:03:25.238Z,17.63
2024-03-07T16:05:52.270Z,20.70
2024-03-07T16:08:19.627Z,20.70
2024-03-07T16:10:48.246Z,18.93
2024-03-07T16:13:15.339Z,22.50
2024-03-07T16:15:45.243Z,18.17
2024-03-07T16:18:13.934Z,19.60
2024-03-07T16:20:41.576Z,20.50
2024-03-07T16:23:08.724Z,23.00
2024-03-07T16:25:37.752Z,21.77
2024-03-07T16:28:07.224Z,21.10
2024-03-07T16:30:34.914Z,23.00
2024-03-07T16:33:02.171Z,22.60
2024-03-07T16:35:31.392Z,18.77
2024-03-07T16:38:00.580Z,20.83
2024-03-07T16:40:29.629Z,17.37
2024-03-07T16:43:01.067Z,16.07
2024-03-07T16:45:32.702Z,14.37
2024-03-07T16:48:02.163Z,14.47
2024-03-07T16:50:33.415Z,12.20
2024-03-07T16:53:03.803Z,15.90
2024-03-07T16:55:30.922Z,15.77
2024-03-07T17:00:27.922Z,13.70
2024-03-07T17:02:59.052Z,13.83
2024-03-07T17:05:30.071Z,12.43
2024-03-07T17:07:57.293Z,15.90
2024-03-07T17:10:24.259Z,11.80
2024-03-07T17:12:52.106Z,16.77
2024-03-07T17:15:23.818Z,16.67
2024-03-07T17:17:53.705Z,21.97
2024-03-07T17:20:26.228Z,15.20
2024-03-07T17:22:54.175Z,17.80
2024-03-07T17:25:23.230Z,17.00
2024-03-07T17:27:53.633Z,12.87
2024-03-07T17:30:22.937Z,16.00
2024-03-07T17:32:50.890Z,17.23
2024-03-07T17:35:19.705Z,17.30
2024-03-07T17:37:48.825Z,17.43
2024-03-07T17:40:16.955Z,15.60
2024-03-07T17:42:53.398Z,19.23
2024-03-07T17:45:30.438Z,15.70
2024-03-07T17:47:59.382Z,16.27
2024-03-07T17:50:27.523Z,15.50
2024-03-07T17:52:58.197Z,15.80
2024-03-07T17:55:25.476Z,17.10
2024-03-07T17:57:52.573Z,19.57
2024-03-07T18:00:20.130Z,18.13
2024-03-07T18:02:47.385Z,19.10
2024-03-07T18:05:15.892Z,18.30
2024-03-07T18:07:45.124Z,18.63
2024-03-07T18:10:15.421Z,18.30
2024-03-07T18:12:42.382Z,19.00
2024-03-07T18:15:16.478Z,19.03
2024-03-07T18:17:49.713Z,16.73
2024-03-07T18:20:17.777Z,19.00
2024-03-07T18:22:45.546Z,16.70
2024-03-07T18:25:12.481Z,17.10
2024-03-07T18:27:39.453Z,19.37
2024-03-07T18:30:07.240Z,17.30
2024-03-07T18:32:34.246Z,18.30
2024-03-07T18:35:01.254Z,17.87
2024-03-07T18:37:28.432Z,19.30
2024-03-07T18:39:55.390Z,19.43
2024-03-07T18:42:22.443Z,19.70
2024-03-07T18:44:49.437Z,16.03
2024-03-07T18:47:16.701Z,18.93
2024-03-07T18:49:43.647Z,17.43
2024-03-07T18:52:10.652Z,17.83
2024-03-07T18:54:37.614Z,16.57
2024-03-07T18:57:04.793Z,20.03
2024-03-07T18:59:31.800Z,20.47
2024-03-07T19:01:58.788Z,18.17
2024-03-07T19:04:25.742Z,20.73
2024-03-07T19:06:52.630Z,18.40
2024-03-07T19:09:19.575Z,23.83
2024-03-07T19:11:47.346Z,19.37
2024-03-07T19:14:14.721Z,21.00
2024-03-07T19:16:52.448Z,22.37
2024-03-07T19:19:20.911Z,21.13
2024-03-07T19:21:48.084Z,20.90
2024-03-07T19:24:15.158Z,20.50
2024-03-07T19:26:45.894Z,22.07
2024-03-07T19:29:13.544Z,24.87
2024-03-07T19:31:40.472Z,26.77
2024-03-07T19:34:07.463Z,25.20
2024-03-07T19:36:34.469Z,27.67
2024-03-07T19:39:01.473Z,25.77
2024-03-07T19:41:28.618Z,23.57
2024-03-07T19:43:55.502Z,24.90
2024-03-07T19:46:24.153Z,22.10
2024-03-07T19:48:53.013Z,23.57
2024-03-07T19:51:20.060Z,29.93
2024-03-07T19:53:47.014Z,26.80
2024-03-07T19:56:20.162Z,27.23
2024-03-07T19:58:47.069Z,23.30
2024-03-07T20:01:14.224Z,25.10
2024-03-07T20:03:41.916Z,27.43
2024-03-07T20:06:09.072Z,28.33
2024-03-07T20:08:36.423Z,27.20
2024-03-07T20:11:03.737Z,30.57
2024-03-07T20:13:30.792Z,26.30
2024-03-07T20:16:01.356Z,30.33
2024-03-07T20:18:29.245Z,32.13
2024-03-07T20:20:56.526Z,25.40
2024-03-07T20:23:23.547Z,38.03
2024-03-07T20:25:50.668Z,36.60
2024-03-07T20:28:17.647Z,34.23
2024-03-07T20:30:44.575Z,37.53
2024-03-07T20:33:11.737Z,35.33
2024-03-07T20:35:38.891Z,36.17
2024-03-07T20:38:06.265Z,34.07
2024-03-07T20:40:33.857Z,39.73
2024-03-07T20:43:01.291Z,42.47
2024-03-07T20:45:28.270Z,44.13
2024-03-07T20:47:55.594Z,38.27
2024-03-07T20:50:23.145Z,39.70
2024-03-07T20:52:50.514Z,36.43
2024-03-07T20:55:18.395Z,42.17
2024-03-07T20:57:46.861Z,46.57
2024-03-07T21:00:22.718Z,41.50
2024-03-07T21:02:49.663Z,41.43
2024-03-07T21:05:16.686Z,47.60
2024-03-07T21:07:44.039Z,43.67
2024-03-07T21:10:11.953Z,43.90
2024-03-07T21:12:39.038Z,41.70
2024-03-07T21:15:08.285Z,43.07
2024-03-07T21:17:36.376Z,37.10
2024-03-07T21:20:15.638Z,40.30
2024-03-07T21:22:45.277Z,41.50
2024-03-07T21:25:14.344Z,38.70
2024-03-07T21:27:41.354Z,36.90
2024-03-07T21:30:09.097Z,39.13
2024-03-07T21:32:36.520Z,36.13
2024-03-07T21:35:04.476Z,36.00
2024-03-07T21:37:31.772Z,40.50
2024-03-07T21:39:58.890Z,37.20
2024-03-07T21:42:25.800Z,36.23
2024-03-07T21:44:52.781Z,35.93
2024-03-07T21:47:19.852Z,34.37
2024-03-07T21:49:47.225Z,38.93
2024-03-07T21:52:14.190Z,36.57
2024-03-07T21:54:45.272Z,35.90
2024-03-07T21:57:12.309Z,36.20
2024-03-07T21:59:40.163Z,32.40
2024-03-07T22:02:09.063Z,33.53
2024-03-07T22:04:36.382Z,34.20
2024-03-07T22:07:03.413Z,38.30
2024-03-07T22:09:30.502Z,33.20
2024-03-07T22:11:57.490Z,32.90
2024-03-07T22:14:24.728Z,34.27
2024-03-07T22:16:56.139Z,33.13
2024-03-07T22:19:23.862Z,28.80
2024-03-07T22:21:50.808Z,36.23
2024-03-07T22:24:17.776Z,41.70
2024-03-07T22:26:46.149Z,35.47
2024-03-07T22:29:13.221Z,38.40
2024-03-07T22:31:40.532Z,35.00
2024-03-07T22:34:10.272Z,32.87
2024-03-07T22:36:44.593Z,34.27
2024-03-07T22:39:11.669Z,36.30
2024-03-07T22:41:38.724Z,31.67
2024-03-07T22:44:08.931Z,28.80
2024-03-07T22:46:35.980Z,26.00
2024-03-07T22:49:03.101Z,25.10
2024-03-07T22:51:30.112Z,30.93
2024-03-07T22:53:57.285Z,32.87
2024-03-07T22:56:27.318Z,26.27
2024-03-07T22:58:54.243Z,30.57
2024-03-07T23:01:33.240Z,27.37
2024-03-07T23:04:02.217Z,30.63
2024-03-07T23:06:29.605Z,27.50
2024-03-07T23:08:56.601Z,30.87
2024-03-07T23:11:23.564Z,28.40
2024-03-07T23:13:50.550Z,26.70
2024-03-07T23:16:17.541Z,27.63
2024-03-07T23:18:44.748Z,33.73
2024-03-07T23:21:11.825Z,33.47
2024-03-07T23:23:38.876Z,33.23
2024-03-07T23:26:06.054Z,36.00
2024-03-07T23:28:32.949Z,38.37
2024-03-07T23:30:59.932Z,32.63
2024-03-07T23:33:26.969Z,43.57
2024-03-07T23:35:54.035Z,41.63
2024-03-07T23:38:20.962Z,38.50
2024-03-07T23:40:47.918Z,46.43
2024-03-07T23:43:14.861Z,44.40
2024-03-07T23:45:41.741Z,50.90
2024-03-07T23:48:08.855Z,60.80
2024-03-07T23:50:35.798Z,58.53
2024-03-07T23:53:02.918Z,54.07
2024-03-07T23:55:29.757Z,52.67
2024-03-07T23:57:56.758Z,64.37
